createdAt,value
2019-02-26T00:02:00.512Z,19.12
2019-02-26T00:04:30.342Z,19.73
2019-02-26T00:07:00.663Z,19.67
2019-02-26T00:09:32.359Z,18.75
2019-02-26T00:12:01.466Z,19.05
2019-02-26T00:14:30.952Z,18.90
2019-02-26T00:17:00.535Z,19.10
2019-02-26T00:19:30.072Z,18.45
2019-02-26T00:21:59.613Z,17.52
2019-02-26T00:24:30.773Z,19.55
2019-02-26T00:27:01.474Z,18.10
2019-02-26T00:29:32.175Z,19.65
2019-02-26T00:32:01.854Z,18.23
2019-02-26T00:34:32.388Z,16.48
2019-02-26T00:37:04.039Z,17.17
2019-02-26T00:39:34.268Z,17.80
2019-02-26T00:42:05.143Z,18.15
2019-02-26T00:44:37.130Z,17.62
2019-02-26T00:47:07.139Z,16.50
2019-02-26T00:49:37.520Z,17.73
2019-02-26T00:52:08.637Z,18.52
2019-02-26T00:54:38.180Z,17.95
2019-02-26T00:57:08.603Z,17.52
2019-02-26T00:59:41.061Z,18.52
2019-02-26T01:02:09.989Z,18.25
2019-02-26T01:04:41.376Z,17.62
2019-02-26T01:07:10.746Z,17.45
2019-02-26T01:09:40.220Z,17.25
2019-02-26T01:12:11.325Z,17.55
2019-02-26T01:14:41.294Z,18.50
2019-02-26T01:17:12.655Z,18.55
2019-02-26T01:19:43.213Z,17.82
2019-02-26T01:22:12.770Z,18.50
2019-02-26T01:24:52.559Z,18.32
2019-02-26T01:27:28.853Z,17.17
2019-02-26T01:30:00.268Z,16.82
2019-02-26T01:32:29.600Z,18.62
2019-02-26T01:35:00.743Z,17.70
2019-02-26T01:37:32.099Z,17.20
2019-02-26T01:40:01.857Z,19.17
2019-02-26T01:42:31.697Z,17.60
2019-02-26T01:45:01.390Z,18.82
2019-02-26T01:47:30.947Z,17.82
2019-02-26T01:50:00.490Z,17.15
2019-02-26T01:52:30.047Z,16.95
2019-02-26T01:55:00.612Z,17.02
2019-02-26T01:57:30.731Z,17.75
2019-02-26T02:00:00.322Z,17.98
2019-02-26T02:02:30.328Z,16.90
2019-02-26T02:05:02.128Z,17.62
2019-02-26T02:07:31.109Z,18.42
2019-02-26T02:10:03.172Z,17.60
2019-02-26T02:12:34.361Z,16.97
2019-02-26T02:15:03.634Z,16.85
2019-02-26T02:17:33.826Z,18.30
2019-02-26T02:20:07.706Z,16.37
2019-02-26T02:22:37.622Z,17.12
2019-02-26T02:25:07.980Z,17.75
2019-02-26T02:27:37.483Z,17.12
2019-02-26T02:30:14.256Z,17.23
2019-02-26T02:32:40.316Z,17.90
2019-02-26T02:35:12.415Z,17.62
2019-02-26T02:37:40.973Z,17.85
2019-02-26T02:40:10.836Z,17.00
2019-02-26T02:42:42.568Z,16.82
2019-02-26T02:45:16.160Z,16.40
2019-02-26T02:47:43.189Z,19.80
2019-02-26T02:50:18.048Z,18.12
2019-02-26T02:52:46.243Z,17.80
2019-02-26T02:55:17.224Z,18.20
2019-02-26T02:57:49.354Z,16.95
2019-02-26T03:00:20.523Z,16.85
2019-02-26T03:02:50.003Z,16.45
2019-02-26T03:05:20.371Z,16.02
2019-02-26T03:07:51.649Z,15.00
2019-02-26T03:10:21.105Z,16.57
2019-02-26T03:12:54.251Z,17.32
2019-02-26T03:15:24.003Z,15.23
2019-02-26T03:17:52.996Z,16.67
2019-02-26T03:20:24.585Z,18.40
2019-02-26T03:22:53.704Z,16.87
2019-02-26T03:25:24.376Z,15.50
2019-02-26T03:27:54.432Z,16.00
2019-02-26T03:30:32.072Z,15.45
2019-02-26T03:33:02.876Z,17.07
2019-02-26T03:35:26.133Z,17.23
2019-02-26T03:37:58.157Z,17.37
2019-02-26T03:40:29.729Z,16.55
2019-02-26T03:42:58.013Z,14.50
2019-02-26T03:45:27.542Z,14.53
2019-02-26T03:47:58.048Z,16.15
2019-02-26T03:50:28.365Z,18.30
2019-02-26T03:52:57.854Z,15.80
2019-02-26T03:55:27.276Z,15.55
2019-02-26T03:57:59.132Z,17.05
2019-02-26T04:00:27.862Z,16.85
2019-02-26T04:02:57.357Z,17.42
2019-02-26T04:05:26.917Z,18.02
2019-02-26T04:07:59.533Z,15.45
2019-02-26T04:10:28.469Z,15.53
2019-02-26T04:12:58.239Z,16.42
2019-02-26T04:15:30.013Z,15.30
2019-02-26T04:17:59.039Z,16.50
2019-02-26T04:20:28.518Z,15.70
2019-02-26T04:22:58.026Z,16.27
2019-02-26T04:25:36.471Z,17.77
2019-02-26T04:28:18.869Z,16.37
2019-02-26T04:31:08.662Z,17.12
2019-02-26T04:33:50.583Z,16.45
2019-02-26T04:36:48.639Z,16.87
2019-02-26T04:39:56.127Z,17.92
2019-02-26T04:43:01.910Z,19.67
2019-02-26T04:45:59.407Z,16.35
2019-02-26T04:48:34.224Z,17.73
2019-02-26T04:51:02.956Z,19.12
2019-02-26T04:53:34.433Z,19.48
2019-02-26T04:56:05.952Z,19.77
2019-02-26T04:58:37.251Z,19.67
2019-02-26T05:01:08.013Z,21.55
2019-02-26T05:03:37.267Z,19.62
2019-02-26T05:06:07.978Z,17.20
2019-02-26T05:08:40.132Z,18.77
2019-02-26T05:11:11.903Z,17.42
2019-02-26T05:13:40.583Z,17.62
2019-02-26T05:16:10.207Z,16.67
2019-02-26T05:18:39.723Z,18.85
2019-02-26T05:21:10.813Z,17.10
2019-02-26T05:23:40.580Z,16.80
2019-02-26T05:26:11.670Z,18.17
2019-02-26T05:28:43.628Z,17.25
2019-02-26T05:31:14.470Z,18.10
2019-02-26T05:33:43.728Z,18.65
2019-02-26T05:36:15.070Z,16.85
2019-02-26T05:38:44.479Z,16.40
2019-02-26T05:41:15.460Z,16.32
2019-02-26T05:43:49.414Z,18.98
2019-02-26T05:46:18.894Z,17.17
2019-02-26T05:48:48.538Z,18.37
2019-02-26T05:51:18.877Z,18.27
2019-02-26T05:53:48.581Z,16.48
2019-02-26T05:56:20.171Z,16.55
2019-02-26T05:58:49.411Z,15.85
2019-02-26T06:01:20.001Z,16.60
2019-02-26T06:03:51.869Z,14.93
2019-02-26T06:06:21.236Z,17.05
2019-02-26T06:08:50.798Z,16.40
2019-02-26T06:11:20.302Z,19.75
2019-02-26T06:13:49.881Z,17.60
2019-02-26T06:16:21.671Z,15.10
2019-02-26T06:18:51.755Z,17.52
2019-02-26T06:21:23.520Z,19.00
2019-02-26T06:23:56.213Z,19.70
2019-02-26T06:26:28.045Z,20.45
2019-02-26T06:28:56.889Z,18.40
2019-02-26T06:31:26.435Z,20.40
2019-02-26T06:33:55.938Z,19.45
2019-02-26T06:36:26.410Z,17.85
2019-02-26T06:38:58.777Z,20.70
2019-02-26T06:41:27.784Z,19.52
2019-02-26T06:43:57.364Z,19.20
2019-02-26T06:46:28.821Z,19.15
2019-02-26T06:48:58.020Z,21.65
2019-02-26T06:51:28.304Z,19.80
2019-02-26T06:53:59.293Z,20.52
2019-02-26T06:56:37.088Z,19.87
2019-02-26T06:59:10.419Z,17.85
2019-02-26T07:01:41.968Z,18.27
2019-02-26T07:04:12.935Z,18.10
2019-02-26T07:06:42.531Z,19.23
2019-02-26T07:09:13.792Z,19.92
2019-02-26T07:11:44.130Z,18.92
2019-02-26T07:14:13.735Z,18.62
2019-02-26T07:16:43.239Z,20.65
2019-02-26T07:19:14.211Z,20.43
2019-02-26T07:21:50.449Z,19.37
2019-02-26T07:24:22.566Z,17.15
2019-02-26T07:26:51.780Z,19.77
2019-02-26T07:29:21.269Z,18.55
2019-02-26T07:31:54.195Z,21.07
2019-02-26T07:34:27.510Z,21.27
2019-02-26T07:36:56.992Z,18.52
2019-02-26T07:39:26.507Z,18.23
2019-02-26T07:41:55.987Z,19.98
2019-02-26T07:44:26.465Z,18.05
2019-02-26T07:46:58.824Z,19.77
2019-02-26T07:49:28.018Z,19.48
2019-02-26T07:51:58.278Z,22.85
2019-02-26T07:54:29.038Z,20.52
2019-02-26T07:57:00.586Z,22.00
2019-02-26T07:59:32.342Z,23.90
2019-02-26T08:02:01.779Z,20.52
2019-02-26T08:04:33.989Z,24.35
2019-02-26T08:07:03.755Z,22.35
2019-02-26T08:09:33.303Z,22.37
2019-02-26T08:12:04.337Z,18.30
2019-02-26T08:14:33.959Z,20.25
2019-02-26T08:17:04.385Z,18.02
2019-02-26T08:19:36.789Z,19.27
2019-02-26T08:22:05.864Z,18.37
2019-02-26T08:24:35.515Z,18.75
2019-02-26T08:27:06.086Z,19.05
2019-02-26T08:29:36.313Z,18.10
2019-02-26T08:32:06.181Z,18.60
2019-02-26T08:34:39.177Z,20.65
2019-02-26T08:37:06.958Z,19.42
2019-02-26T08:39:38.036Z,19.85
2019-02-26T08:42:11.757Z,18.30
2019-02-26T08:44:41.272Z,21.37
2019-02-26T08:47:13.434Z,20.75
2019-02-26T08:49:43.457Z,16.57
2019-02-26T08:52:16.833Z,18.55
2019-02-26T08:54:44.661Z,18.77
2019-02-26T08:57:14.114Z,21.42
2019-02-26T08:59:45.377Z,18.82
2019-02-26T09:02:14.754Z,19.02
2019-02-26T09:04:45.092Z,18.10
2019-02-26T09:07:16.447Z,18.98
2019-02-26T09:09:48.103Z,16.65
2019-02-26T09:12:19.718Z,18.35
2019-02-26T09:14:49.984Z,16.75
2019-02-26T09:17:23.172Z,17.25
2019-02-26T09:19:52.648Z,19.25
2019-02-26T09:22:23.691Z,16.30
2019-02-26T09:24:54.488Z,16.10
2019-02-26T09:27:24.825Z,17.57
2019-02-26T09:29:55.369Z,16.35
2019-02-26T09:32:24.911Z,14.30
2019-02-26T09:34:56.846Z,17.77
2019-02-26T09:37:25.754Z,17.37
2019-02-26T09:39:57.358Z,16.42
2019-02-26T09:42:27.832Z,17.25
2019-02-26T09:45:00.159Z,16.10
2019-02-26T09:47:32.864Z,17.02
2019-02-26T09:50:00.903Z,16.77
2019-02-26T09:52:32.692Z,16.80
2019-02-26T09:55:02.337Z,16.02
2019-02-26T09:57:31.852Z,16.07
2019-02-26T10:00:03.252Z,20.52
2019-02-26T10:02:32.523Z,16.57
2019-02-26T10:05:02.231Z,14.35
2019-02-26T10:07:35.535Z,16.05
2019-02-26T10:10:06.524Z,15.32
2019-02-26T10:12:37.100Z,15.48
2019-02-26T10:15:08.037Z,14.55
2019-02-26T10:17:39.979Z,15.85
2019-02-26T10:20:11.620Z,17.00
2019-02-26T10:22:41.179Z,16.50
2019-02-26T10:25:11.605Z,16.62
2019-02-26T10:27:43.063Z,15.88
2019-02-26T10:30:16.216Z,16.75
2019-02-26T10:32:46.782Z,17.32
2019-02-26T10:35:19.447Z,16.55
2019-02-26T10:37:54.650Z,15.72
2019-02-26T10:40:34.243Z,15.95
2019-02-26T10:42:55.728Z,16.02
2019-02-26T10:45:28.745Z,14.83
2019-02-26T10:47:59.366Z,16.30
2019-02-26T10:50:31.681Z,16.70
2019-02-26T10:53:07.207Z,17.35
2019-02-26T10:55:38.430Z,17.02
2019-02-26T10:58:07.153Z,15.68
2019-02-26T11:00:37.555Z,17.12
2019-02-26T11:03:07.162Z,15.80
2019-02-26T11:05:39.837Z,14.80
2019-02-26T11:08:09.533Z,15.08
2019-02-26T11:10:41.892Z,16.02
2019-02-26T11:13:12.428Z,17.20
2019-02-26T11:15:41.529Z,16.65
2019-02-26T11:18:12.314Z,15.55
2019-02-26T11:20:45.134Z,16.90
2019-02-26T11:23:16.104Z,16.70
2019-02-26T11:25:45.020Z,17.62
2019-02-26T11:28:14.493Z,16.00
2019-02-26T11:30:44.789Z,14.47
2019-02-26T11:33:15.579Z,16.87
2019-02-26T11:35:47.111Z,16.27
2019-02-26T11:38:17.878Z,17.10
2019-02-26T11:40:50.687Z,17.47
2019-02-26T11:43:23.250Z,17.70
2019-02-26T11:45:51.587Z,17.10
2019-02-26T11:48:23.140Z,18.10
2019-02-26T11:50:52.367Z,14.93
2019-02-26T11:53:21.839Z,18.60
2019-02-26T11:55:52.527Z,17.97
2019-02-26T11:58:24.206Z,17.30
2019-02-26T12:00:57.863Z,17.10
2019-02-26T12:03:30.353Z,18.47
2019-02-26T12:06:01.241Z,16.90
2019-02-26T12:08:30.160Z,17.17
2019-02-26T12:11:03.526Z,17.03
2019-02-26T12:13:31.218Z,15.33
2019-02-26T12:16:00.821Z,14.43
2019-02-26T12:18:31.178Z,19.40
2019-02-26T12:21:02.709Z,15.87
2019-02-26T12:23:31.823Z,14.67
2019-02-26T12:26:03.798Z,15.57
2019-02-26T12:28:34.835Z,16.63
2019-02-26T12:31:04.346Z,16.30
2019-02-26T12:33:34.939Z,14.97
2019-02-26T12:36:06.712Z,14.83
2019-02-26T12:38:36.792Z,14.57
2019-02-26T12:41:08.872Z,15.53
2019-02-26T12:43:42.670Z,15.77
2019-02-26T12:46:09.132Z,13.87
2019-02-26T12:48:41.821Z,15.83
2019-02-26T12:51:09.665Z,13.53
2019-02-26T12:53:49.024Z,13.37
2019-02-26T12:56:16.587Z,16.80
2019-02-26T12:58:48.283Z,14.33
2019-02-26T13:01:17.271Z,14.60
2019-02-26T13:03:50.996Z,14.40
2019-02-26T13:06:18.626Z,15.30
2019-02-26T13:08:50.514Z,18.10
2019-02-26T13:11:24.157Z,15.57
2019-02-26T13:13:53.408Z,15.73
2019-02-26T13:16:42.494Z,14.37
2019-02-26T13:19:12.960Z,13.63
2019-02-26T13:21:43.033Z,16.50
2019-02-26T13:24:17.565Z,13.90
2019-02-26T13:26:48.769Z,14.13
2019-02-26T13:29:15.511Z,13.37
2019-02-26T13:31:55.708Z,15.57
2019-02-26T13:34:16.345Z,15.10
2019-02-26T13:36:52.179Z,16.30
2019-02-26T13:39:21.829Z,16.30
2019-02-26T13:41:54.399Z,14.57
2019-02-26T13:44:19.466Z,14.80
2019-02-26T13:46:48.956Z,15.70
2019-02-26T13:49:18.749Z,14.70
2019-02-26T13:54:44.180Z,16.27
2019-02-26T13:57:13.666Z,14.60
2019-02-26T13:59:43.362Z,12.10
2019-02-26T14:02:12.923Z,13.47
2019-02-26T14:04:42.490Z,15.20
2019-02-26T14:07:12.071Z,14.77
2019-02-26T14:09:41.643Z,14.67
2019-02-26T14:12:11.337Z,15.17
2019-02-26T14:14:43.923Z,15.10
2019-02-26T14:17:13.486Z,13.27
2019-02-26T14:19:42.939Z,14.40
2019-02-26T14:22:12.478Z,14.40
2019-02-26T14:24:42.618Z,13.57
2019-02-26T14:27:12.104Z,14.87
2019-02-26T14:29:41.711Z,15.33
2019-02-26T14:32:11.504Z,14.57
2019-02-26T14:34:41.817Z,15.13
2019-02-26T14:37:11.306Z,19.33
2019-02-26T14:39:40.964Z,15.17
2019-02-26T14:42:10.719Z,15.60
2019-02-26T14:44:40.387Z,13.70
2019-02-26T14:47:09.952Z,13.13
2019-02-26T14:49:39.552Z,14.70
2019-02-26T14:52:09.038Z,13.83
2019-02-26T14:54:38.696Z,13.93
2019-02-26T14:57:08.171Z,15.07
2019-02-26T14:59:38.027Z,15.10
2019-02-26T15:02:08.930Z,14.83
2019-02-26T15:04:38.388Z,16.27
2019-02-26T15:07:07.891Z,14.77
2019-02-26T15:09:37.386Z,15.13
2019-02-26T15:12:06.879Z,15.13
2019-02-26T15:14:36.521Z,17.37
2019-02-26T15:17:06.340Z,14.60
2019-02-26T15:19:35.778Z,15.57
2019-02-26T15:22:05.540Z,14.60
2019-02-26T15:24:34.976Z,15.43
2019-02-26T15:27:04.708Z,14.50
2019-02-26T15:29:34.114Z,14.40
2019-02-26T15:32:03.944Z,14.67
2019-02-26T15:34:33.543Z,14.80
2019-02-26T15:37:03.009Z,15.23
2019-02-26T15:39:32.559Z,14.87
2019-02-26T15:42:02.207Z,15.40
2019-02-26T15:44:37.935Z,14.90
2019-02-26T15:47:09.269Z,15.03
2019-02-26T15:49:39.320Z,14.47
2019-02-26T15:52:08.940Z,14.40
2019-02-26T15:54:38.525Z,14.43
2019-02-26T15:57:10.680Z,13.73
2019-02-26T15:59:40.195Z,13.27
2019-02-26T16:02:10.709Z,14.43
2019-02-26T16:04:40.533Z,15.80
2019-02-26T16:07:10.047Z,15.07
2019-02-26T16:09:39.603Z,15.43
2019-02-26T16:12:09.238Z,15.20
2019-02-26T16:15:08.096Z,15.10
2019-02-26T16:17:38.050Z,15.70
2019-02-26T16:20:13.106Z,14.67
2019-02-26T16:22:43.008Z,14.77
2019-02-26T16:25:12.479Z,14.87
2019-02-26T16:27:42.012Z,14.30
2019-02-26T16:30:17.911Z,14.83
2019-02-26T16:32:48.877Z,15.43
2019-02-26T16:35:18.531Z,14.30
2019-02-26T16:37:48.066Z,12.23
2019-02-26T16:40:17.851Z,14.37
2019-02-26T16:42:47.466Z,13.40
2019-02-26T16:45:18.669Z,14.63
2019-02-26T16:47:48.685Z,15.03
2019-02-26T16:50:20.951Z,15.10
2019-02-26T16:52:51.531Z,15.93
2019-02-26T16:55:21.432Z,13.83
2019-02-26T16:57:51.076Z,14.33
2019-02-26T17:00:24.566Z,14.17
2019-02-26T17:02:54.112Z,15.27
2019-02-26T17:05:24.364Z,14.10
2019-02-26T17:07:54.182Z,13.10
2019-02-26T17:10:24.040Z,14.40
2019-02-26T17:12:56.063Z,14.23
2019-02-26T17:15:27.713Z,16.00
2019-02-26T17:17:57.598Z,15.08
2019-02-26T17:20:27.302Z,14.10
2019-02-26T17:22:57.002Z,15.57
2019-02-26T17:25:29.039Z,16.00
2019-02-26T17:27:58.932Z,15.00
2019-02-26T17:30:28.797Z,15.65
2019-02-26T17:32:58.675Z,15.95
2019-02-26T17:35:29.580Z,18.87
2019-02-26T17:38:39.786Z,15.60
2019-02-26T17:41:12.178Z,16.48
2019-02-26T17:43:41.405Z,18.05
2019-02-26T17:46:11.611Z,19.90
2019-02-26T17:48:43.787Z,18.30
2019-02-26T17:51:18.736Z,20.27
2019-02-26T17:53:47.594Z,19.90
2019-02-26T17:56:17.249Z,22.35
2019-02-26T17:58:46.874Z,24.70
2019-02-26T18:01:17.448Z,19.10
2019-02-26T18:03:47.288Z,21.52
2019-02-26T18:06:16.913Z,21.82
2019-02-26T18:08:46.763Z,27.05
2019-02-26T18:11:17.059Z,26.37
2019-02-26T18:13:48.215Z,24.18
2019-02-26T18:16:17.887Z,30.70
2019-02-26T18:18:47.680Z,19.80
2019-02-26T18:21:17.143Z,18.90
2019-02-26T18:23:46.771Z,20.10
2019-02-26T18:26:17.862Z,19.87
2019-02-26T18:28:47.887Z,19.95
2019-02-26T18:31:26.027Z,17.70
2019-02-26T18:33:49.080Z,22.17
2019-02-26T18:36:18.623Z,20.17
2019-02-26T18:38:48.679Z,21.33
2019-02-26T18:41:18.736Z,20.12
2019-02-26T18:43:48.230Z,20.35
2019-02-26T18:46:17.799Z,19.30
2019-02-26T18:48:48.711Z,17.55
2019-02-26T18:51:18.451Z,16.70
2019-02-26T18:53:47.984Z,17.87
2019-02-26T18:56:17.433Z,16.93
2019-02-26T18:58:51.754Z,17.60
2019-02-26T19:01:21.365Z,16.42
2019-02-26T19:04:00.840Z,19.48
2019-02-26T19:06:29.970Z,20.95
2019-02-26T19:09:01.086Z,21.55
2019-02-26T19:11:30.580Z,22.32
2019-02-26T19:14:00.172Z,20.43
2019-02-26T19:16:29.637Z,20.10
2019-02-26T19:18:59.185Z,19.45
2019-02-26T19:21:28.938Z,21.77
2019-02-26T19:24:04.179Z,21.10
2019-02-26T19:26:33.207Z,29.18
2019-02-26T19:29:03.098Z,23.95
2019-02-26T19:31:32.915Z,25.20
2019-02-26T19:34:02.734Z,21.62
2019-02-26T19:36:32.377Z,21.45
2019-02-26T19:39:02.177Z,19.07
2019-02-26T19:41:32.135Z,19.25
2019-02-26T19:44:01.680Z,48.35
2019-02-26T19:46:31.304Z,20.92
2019-02-26T19:49:00.852Z,19.25
2019-02-26T19:51:30.328Z,18.52
2019-02-26T19:54:04.722Z,21.82
2019-02-26T19:56:34.869Z,18.92
2019-02-26T19:59:04.336Z,21.80
2019-02-26T20:01:36.328Z,20.25
2019-02-26T20:04:05.949Z,20.00
2019-02-26T20:06:35.477Z,22.37
2019-02-26T20:09:07.651Z,21.15
2019-02-26T20:11:37.155Z,20.77
2019-02-26T20:14:06.904Z,20.57
2019-02-26T20:16:36.414Z,21.90
2019-02-26T20:19:06.703Z,20.40
2019-02-26T20:21:36.319Z,20.50
2019-02-26T20:24:05.836Z,20.90
2019-02-26T20:26:35.285Z,21.75
2019-02-26T20:29:07.606Z,19.55
2019-02-26T20:31:36.078Z,19.00
2019-02-26T20:34:06.812Z,22.22
2019-02-26T20:36:36.851Z,22.13
2019-02-26T20:39:08.392Z,21.20
2019-02-26T20:41:37.982Z,21.23
2019-02-26T20:44:07.790Z,21.27
2019-02-26T20:46:38.695Z,22.17
2019-02-26T20:49:09.885Z,20.30
2019-02-26T20:51:39.360Z,19.20
2019-02-26T20:54:11.467Z,18.92
2019-02-26T20:56:40.122Z,18.37
2019-02-26T20:59:09.690Z,20.32
2019-02-26T21:01:40.400Z,20.10
2019-02-26T21:04:09.974Z,19.00
2019-02-26T21:06:39.436Z,19.67
2019-02-26T21:09:09.090Z,21.65
2019-02-26T21:11:38.648Z,20.15
2019-02-26T21:14:08.341Z,22.13
2019-02-26T21:16:37.985Z,20.55
2019-02-26T21:19:07.471Z,20.65
2019-02-26T21:21:36.917Z,20.25
2019-02-26T21:24:06.492Z,20.95
2019-02-26T21:26:35.963Z,20.43
2019-02-26T21:29:06.319Z,21.50
2019-02-26T21:31:36.971Z,22.17
2019-02-26T21:34:06.390Z,23.25
2019-02-26T21:36:35.879Z,24.35
2019-02-26T21:39:10.888Z,25.05
2019-02-26T21:41:38.187Z,23.67
2019-02-26T21:44:08.999Z,24.47
2019-02-26T21:46:38.771Z,22.40
2019-02-26T21:49:09.993Z,24.18
2019-02-26T21:51:39.475Z,24.43
2019-02-26T21:54:08.988Z,23.52
2019-02-26T21:56:38.494Z,21.40
2019-02-26T21:59:08.083Z,23.62
2019-02-26T22:01:37.537Z,21.65
2019-02-26T22:04:07.070Z,22.52
2019-02-26T22:06:36.622Z,21.85
2019-02-26T22:09:07.224Z,23.05
2019-02-26T22:11:36.741Z,24.05
2019-02-26T22:14:06.271Z,22.10
2019-02-26T22:16:35.708Z,23.77
2019-02-26T22:19:07.091Z,22.82
2019-02-26T22:21:36.391Z,23.98
2019-02-26T22:24:06.980Z,24.05
2019-02-26T22:26:37.626Z,21.97
2019-02-26T22:29:07.972Z,19.85
2019-02-26T22:31:37.579Z,20.70
2019-02-26T22:34:07.089Z,19.32
2019-02-26T22:36:36.555Z,20.92
2019-02-26T22:39:06.952Z,19.30
2019-02-26T22:41:36.455Z,19.23
2019-02-26T22:44:06.053Z,21.23
2019-02-26T22:46:35.544Z,19.80
2019-02-26T22:49:05.135Z,21.25
2019-02-26T22:51:34.604Z,19.77
2019-02-26T22:54:04.166Z,21.00
2019-02-26T22:56:33.682Z,18.12
2019-02-26T22:59:03.261Z,21.52
2019-02-26T23:01:40.133Z,22.13
2019-02-26T23:04:09.709Z,20.92
2019-02-26T23:06:39.286Z,20.48
2019-02-26T23:09:12.345Z,19.55
2019-02-26T23:11:42.117Z,21.82
2019-02-26T23:14:11.639Z,20.27
2019-02-26T23:16:42.696Z,20.17
2019-02-26T23:19:12.562Z,19.75
2019-02-26T23:21:43.431Z,21.65
2019-02-26T23:24:13.102Z,18.52
2019-02-26T23:26:43.558Z,20.20
2019-02-26T23:29:13.030Z,20.57
2019-02-26T23:31:42.756Z,20.43
2019-02-26T23:34:12.375Z,19.85
2019-02-26T23:36:41.862Z,21.25
2019-02-26T23:39:13.654Z,19.00
2019-02-26T23:41:43.180Z,18.95
2019-02-26T23:44:13.224Z,19.17
2019-02-26T23:46:42.770Z,19.27
2019-02-26T23:49:14.222Z,19.48
2019-02-26T23:51:43.406Z,19.27
2019-02-26T23:54:12.932Z,19.37
2019-02-26T23:56:42.402Z,20.10
2019-02-26T23:59:12.007Z,19.82
